createdAt,value
2018-07-15T12:51:06.815Z,30.00
2018-07-15T12:53:35.838Z,30.30
2018-07-15T12:56:04.949Z,30.60
2018-07-15T12:58:34.041Z,30.50
2018-07-15T13:01:03.095Z,30.60
2018-07-15T13:03:32.160Z,30.30
2018-07-15T13:06:01.355Z,30.40
2018-07-15T13:08:30.411Z,30.00
2018-07-15T13:10:59.495Z,29.10
2018-07-15T13:13:28.567Z,29.30
2018-07-15T13:16:13.547Z,28.70
2018-07-15T13:18:42.576Z,28.60
2018-07-15T13:21:11.659Z,29.40
2018-07-15T13:23:40.782Z,28.50
2018-07-15T13:26:09.874Z,28.60
2018-07-15T13:28:38.958Z,28.60
2018-07-15T13:31:07.996Z,28.90
2018-07-15T13:33:37.056Z,29.50
2018-07-15T13:36:06.320Z,29.60
2018-07-15T13:38:35.394Z,29.00
2018-07-15T13:41:04.452Z,29.10
2018-07-15T13:43:33.556Z,28.80
2018-07-15T13:46:02.614Z,29.10
2018-07-15T13:48:31.652Z,28.90
2018-07-15T13:51:00.717Z,29.10
2018-07-15T13:53:29.738Z,29.10
2018-07-15T13:55:58.771Z,28.90
2018-07-15T13:58:28.058Z,28.70
2018-07-15T14:00:57.115Z,29.30
2018-07-15T14:03:26.225Z,29.70
2018-07-15T14:05:55.274Z,29.90
2018-07-15T14:08:24.391Z,29.70
2018-07-15T14:10:53.428Z,29.60
2018-07-15T14:13:22.521Z,29.60
2018-07-15T14:15:51.623Z,30.00
2018-07-15T14:18:20.714Z,29.80
2018-07-15T14:20:49.788Z,30.10
2018-07-15T14:23:18.933Z,30.10
2018-07-15T14:25:47.979Z,29.50
2018-07-15T14:28:17.023Z,29.60
2018-07-15T14:30:46.078Z,29.60
2018-07-15T14:33:15.199Z,29.80
2018-07-15T14:35:44.306Z,29.50
2018-07-15T14:38:13.565Z,29.60
2018-07-15T14:40:42.602Z,29.40
2018-07-15T14:43:11.652Z,29.50
2018-07-15T14:45:42.103Z,29.00
2018-07-15T14:48:11.343Z,28.70
2018-07-15T14:50:41.147Z,28.60
2018-07-15T14:53:10.318Z,29.00
2018-07-15T14:55:40.035Z,28.70
2018-07-15T14:58:10.515Z,28.40
2018-07-15T15:00:39.752Z,28.60
2018-07-15T15:03:08.822Z,28.50
2018-07-15T15:05:37.911Z,28.70
2018-07-15T15:08:06.959Z,29.40
2018-07-15T15:10:36.015Z,29.00
2018-07-15T15:13:05.108Z,28.50
2018-07-15T15:15:34.137Z,28.40
2018-07-15T15:18:03.343Z,28.40
2018-07-15T15:20:32.404Z,27.80
2018-07-15T15:23:01.440Z,28.50
2018-07-15T15:25:30.504Z,28.70
2018-07-15T15:27:59.547Z,28.50
2018-07-15T15:30:28.583Z,28.00
2018-07-15T15:32:57.610Z,28.00
2018-07-15T15:35:26.681Z,28.30
2018-07-15T15:37:55.741Z,28.30
2018-07-15T15:40:24.814Z,28.90
2018-07-15T15:42:53.869Z,28.20
2018-07-15T15:45:22.955Z,28.30
2018-07-15T15:47:52.023Z,28.30
2018-07-15T15:50:21.126Z,28.50
2018-07-15T15:52:50.234Z,28.10
2018-07-15T15:55:19.284Z,27.80
2018-07-15T15:57:48.343Z,27.90
2018-07-15T16:00:17.388Z,27.40
2018-07-15T16:02:46.472Z,27.20
2018-07-15T16:05:15.524Z,27.70
2018-07-15T16:07:44.575Z,27.60
2018-07-15T16:10:13.639Z,27.20
2018-07-15T16:12:42.708Z,27.60
2018-07-15T16:15:11.780Z,27.40
2018-07-15T16:17:40.848Z,27.40
2018-07-15T16:20:09.910Z,27.50
2018-07-15T16:22:38.944Z,26.90
2018-07-15T16:25:08.371Z,26.90
2018-07-15T16:27:37.382Z,27.20
2018-07-15T16:30:06.480Z,27.80
2018-07-15T16:32:35.675Z,27.80
2018-07-15T16:35:04.763Z,27.50
2018-07-15T16:37:33.807Z,27.40
2018-07-15T16:40:02.882Z,27.20
2018-07-15T16:42:31.931Z,27.10
2018-07-15T16:45:01.162Z,27.20
2018-07-15T16:47:30.219Z,27.50
2018-07-15T16:49:59.251Z,27.40
2018-07-15T16:52:28.419Z,27.10
2018-07-15T16:54:57.514Z,27.50
2018-07-15T16:57:26.565Z,27.60
2018-07-15T16:59:55.638Z,27.30
2018-07-15T17:02:24.741Z,27.40
2018-07-15T17:04:53.793Z,27.30
2018-07-15T17:07:22.835Z,27.40
2018-07-15T17:09:51.904Z,27.40
2018-07-15T17:12:20.994Z,27.30
2018-07-15T17:14:50.050Z,27.20
2018-07-15T17:17:19.123Z,27.10
2018-07-15T17:19:48.184Z,26.70
2018-07-15T17:22:17.334Z,26.90
2018-07-15T17:24:46.383Z,26.70
2018-07-15T17:27:15.479Z,26.60
2018-07-15T17:29:44.596Z,27.00
2018-07-15T17:32:13.659Z,27.20
2018-07-15T17:34:42.699Z,27.10
2018-07-15T17:37:11.779Z,26.80
2018-07-15T17:39:40.856Z,26.90
2018-07-15T17:42:10.216Z,26.90
2018-07-15T17:44:39.291Z,27.10
2018-07-15T17:47:08.395Z,26.70
2018-07-15T17:49:37.439Z,26.80
2018-07-15T17:52:06.499Z,26.80
2018-07-15T17:54:35.584Z,26.50
2018-07-15T17:57:04.657Z,26.30
2018-07-15T17:59:33.712Z,26.10
2018-07-15T18:02:02.826Z,26.00
2018-07-15T18:04:32.047Z,26.10
2018-07-15T18:09:29.747Z,25.70
2018-07-15T18:11:58.783Z,25.80
2018-07-15T18:14:27.828Z,25.90
2018-07-15T18:16:56.948Z,25.80
2018-07-15T18:19:26.071Z,25.80
2018-07-15T18:21:55.129Z,25.70
2018-07-15T18:24:24.179Z,26.10
2018-07-15T18:26:53.403Z,26.20
2018-07-15T18:29:22.546Z,26.30
2018-07-15T18:34:21.128Z,26.10
2018-07-15T18:36:50.262Z,25.80
2018-07-15T18:39:19.367Z,25.70
2018-07-15T18:41:50.636Z,25.60
2018-07-15T18:44:19.693Z,25.70
2018-07-15T18:46:49.154Z,25.60
2018-07-15T18:49:18.282Z,25.50
2018-07-15T18:51:47.418Z,25.30
2018-07-15T18:54:16.513Z,25.20
2018-07-15T18:56:45.588Z,25.20
2018-07-15T18:59:14.652Z,25.20
2018-07-15T19:01:43.723Z,25.10
2018-07-15T19:04:12.863Z,25.20
2018-07-15T19:06:41.920Z,25.10
2018-07-15T19:09:11.091Z,25.10
2018-07-15T19:11:40.149Z,24.90
2018-07-15T19:14:09.223Z,24.70
2018-07-15T19:16:38.349Z,24.60
2018-07-15T19:19:07.446Z,24.60
2018-07-15T19:21:36.539Z,24.60
2018-07-15T19:24:06.043Z,24.50
2018-07-15T19:26:35.653Z,24.40
2018-07-15T19:29:04.838Z,24.30
2018-07-15T19:31:33.966Z,24.30
2018-07-15T19:34:03.005Z,24.20
2018-07-15T19:36:32.113Z,24.20
2018-07-15T19:39:01.235Z,24.20
2018-07-15T19:43:58.984Z,24.10
2018-07-15T19:46:28.049Z,24.00
2018-07-15T19:48:57.269Z,23.90
2018-07-15T19:51:26.336Z,23.80
2018-07-15T19:53:55.391Z,23.70
2018-07-15T19:56:24.426Z,23.60
2018-07-15T19:58:54.501Z,23.60
2018-07-15T20:01:23.633Z,23.50
2018-07-15T20:03:52.645Z,23.40
2018-07-15T20:06:21.690Z,23.30
2018-07-15T20:08:50.753Z,23.30
2018-07-15T20:11:19.807Z,23.50
2018-07-15T20:13:48.888Z,23.30
2018-07-15T20:16:17.939Z,23.30
2018-07-15T20:18:47.205Z,23.30
2018-07-15T20:21:16.496Z,23.30
2018-07-15T20:23:45.570Z,23.20
2018-07-15T20:26:14.635Z,23.10
2018-07-15T20:28:43.866Z,23.00
2018-07-15T20:31:13.097Z,22.90
2018-07-15T20:33:42.188Z,22.90
2018-07-15T20:36:11.284Z,22.90
2018-07-15T20:38:40.346Z,22.90
2018-07-15T20:41:09.466Z,22.90
2018-07-15T20:43:38.945Z,22.80
2018-07-15T20:46:08.357Z,22.70
2018-07-15T20:48:37.419Z,22.60
2018-07-15T20:51:06.659Z,22.50
2018-07-15T20:53:35.748Z,22.50
2018-07-15T20:56:04.827Z,22.50
2018-07-15T20:58:34.407Z,22.50
2018-07-15T21:01:03.452Z,22.40
2018-07-15T21:03:32.641Z,22.40
2018-07-15T21:06:01.744Z,22.30
2018-07-15T21:08:30.921Z,22.30
2018-07-15T21:11:00.016Z,22.30
2018-07-15T21:13:29.090Z,22.20
2018-07-15T21:15:58.172Z,22.10
2018-07-15T21:18:27.257Z,22.20
2018-07-15T21:20:56.347Z,22.20
2018-07-15T21:23:25.405Z,22.00
2018-07-15T21:25:54.498Z,22.00
2018-07-15T21:28:23.579Z,21.90
2018-07-15T21:30:52.618Z,21.90
2018-07-15T21:33:21.762Z,21.90
2018-07-15T21:35:50.845Z,21.80
2018-07-15T21:38:19.892Z,21.80
2018-07-15T21:40:49.011Z,21.70
2018-07-15T21:43:18.076Z,21.70
2018-07-15T21:45:47.135Z,21.70
2018-07-15T21:48:16.185Z,21.60
2018-07-15T21:50:45.249Z,21.60
2018-07-15T21:53:14.334Z,21.50
2018-07-15T21:55:43.399Z,21.40
2018-07-15T21:58:12.453Z,21.40
2018-07-15T22:00:41.503Z,21.40
2018-07-15T22:03:10.550Z,21.40
2018-07-15T22:05:39.615Z,21.40
2018-07-15T22:08:19.978Z,21.30
2018-07-15T22:10:49.068Z,21.20
2018-07-15T22:13:18.136Z,21.10
2018-07-15T22:15:47.211Z,21.00
2018-07-15T22:18:16.295Z,21.00
2018-07-15T22:20:45.394Z,21.00
2018-07-15T22:23:14.516Z,20.90
2018-07-15T22:25:43.650Z,20.90
2018-07-15T22:28:12.930Z,20.90
2018-07-15T22:30:42.024Z,20.80
2018-07-15T22:33:11.071Z,20.70
2018-07-15T22:35:40.111Z,20.80
2018-07-15T22:38:09.597Z,20.70
2018-07-15T22:40:38.790Z,20.70
2018-07-15T22:43:07.863Z,20.70
2018-07-15T22:45:36.952Z,20.70
2018-07-15T22:48:06.067Z,20.70
2018-07-15T22:50:35.145Z,20.60
2018-07-15T22:53:04.192Z,20.60
2018-07-15T22:55:33.339Z,20.60
2018-07-15T22:58:02.444Z,20.60
2018-07-15T23:00:31.646Z,20.60
2018-07-15T23:03:00.696Z,20.60
2018-07-15T23:05:42.237Z,20.50
2018-07-15T23:08:11.632Z,20.50
2018-07-15T23:10:40.791Z,20.60
2018-07-15T23:13:10.763Z,20.50
2018-07-15T23:15:40.155Z,20.50
2018-07-15T23:18:09.236Z,20.40
2018-07-15T23:20:39.159Z,20.50
2018-07-15T23:23:08.978Z,20.40
2018-07-15T23:25:38.065Z,20.40
2018-07-15T23:28:08.310Z,20.40
2018-07-15T23:30:38.222Z,20.30
2018-07-15T23:33:07.769Z,20.30
2018-07-15T23:35:36.888Z,20.40
2018-07-15T23:38:06.130Z,20.40
2018-07-15T23:40:35.213Z,20.40
2018-07-15T23:43:04.515Z,20.30
2018-07-15T23:45:34.411Z,20.30
2018-07-15T23:48:03.481Z,20.30
2018-07-15T23:50:32.582Z,20.20
2018-07-15T23:53:01.677Z,20.20
2018-07-15T23:55:30.739Z,20.20
2018-07-15T23:57:59.818Z,20.20
